sensor_id;sensor_type;location;lat;lon;timestamp;pressure;altitude;pressure_sealevel;temperature;humidity
61674;BME280;47573;43.832;5.974;2023-06-10T00:02:51;94959.66;;;28.32;69.55
61674;BME280;47573;43.832;5.974;2023-06-10T00:09:31;94952.28;;;28.27;69.60
61674;BME280;47573;43.832;5.974;2023-06-10T00:16:13;94942.41;;;28.26;69.66
61674;BME280;47573;43.832;5.974;2023-06-10T00:22:54;94940.47;;;28.27;69.52
61674;BME280;47573;43.832;5.974;2023-06-10T00:29:34;94928.44;;;28.23;69.74
61674;BME280;47573;43.832;5.974;2023-06-10T00:36:16;94915.00;;;28.21;69.60
61674;BME280;47573;43.832;5.974;2023-06-10T00:42:56;94903.44;;;28.24;69.57
61674;BME280;47573;43.832;5.974;2023-06-10T00:49:37;94887.53;;;28.21;69.59
61674;BME280;47573;43.832;5.974;2023-06-10T00:56:20;94883.16;;;28.20;69.52
61674;BME280;47573;43.832;5.974;2023-06-10T01:03:00;94887.56;;;28.16;69.72
61674;BME280;47573;43.832;5.974;2023-06-10T01:09:45;94893.34;;;28.15;69.76
61674;BME280;47573;43.832;5.974;2023-06-10T01:16:31;94894.75;;;28.12;69.83
61674;BME280;47573;43.832;5.974;2023-06-10T01:23:13;94920.81;;;28.15;69.80
61674;BME280;47573;43.832;5.974;2023-06-10T01:29:58;94924.97;;;28.07;70.17
61674;BME280;47573;43.832;5.974;2023-06-10T01:36:40;94924.69;;;28.09;69.99
61674;BME280;47573;43.832;5.974;2023-06-10T01:43:23;94922.22;;;28.07;70.06
61674;BME280;47573;43.832;5.974;2023-06-10T01:50:04;94910.69;;;28.05;70.14
61674;BME280;47573;43.832;5.974;2023-06-10T01:56:45;94900.56;;;28.06;70.16
61674;BME280;47573;43.832;5.974;2023-06-10T02:03:27;94895.66;;;28.03;70.04
61674;BME280;47573;43.832;5.974;2023-06-10T02:10:08;94885.47;;;28.03;70.26
61674;BME280;47573;43.832;5.974;2023-06-10T02:16:48;94891.81;;;27.99;70.41
61674;BME280;47573;43.832;5.974;2023-06-10T02:23:30;94895.38;;;27.99;70.24
61674;BME280;47573;43.832;5.974;2023-06-10T02:30:12;94895.97;;;27.96;70.44
61674;BME280;47573;43.832;5.974;2023-06-10T02:36:52;94894.88;;;27.92;70.46
61674;BME280;47573;43.832;5.974;2023-06-10T02:43:34;94905.00;;;27.92;70.47
61674;BME280;47573;43.832;5.974;2023-06-10T02:50:15;94904.47;;;27.90;70.63
61674;BME280;47573;43.832;5.974;2023-06-10T02:56:55;94903.34;;;27.91;70.45
61674;BME280;47573;43.832;5.974;2023-06-10T03:03:37;94900.91;;;27.89;70.56
61674;BME280;47573;43.832;5.974;2023-06-10T03:10:17;94912.16;;;27.88;70.75
61674;BME280;47573;43.832;5.974;2023-06-10T03:16:58;94905.31;;;27.85;70.58
61674;BME280;47573;43.832;5.974;2023-06-10T03:23:40;94894.88;;;27.87;70.72
61674;BME280;47573;43.832;5.974;2023-06-10T03:30:20;94905.88;;;27.82;70.91
61674;BME280;47573;43.832;5.974;2023-06-10T03:37:01;94914.94;;;27.82;71.02
61674;BME280;47573;43.832;5.974;2023-06-10T03:43:43;94907.00;;;27.76;71.15
61674;BME280;47573;43.832;5.974;2023-06-10T03:50:23;94905.34;;;27.80;71.00
61674;BME280;47573;43.832;5.974;2023-06-10T03:57:04;94893.03;;;27.77;70.74
61674;BME280;47573;43.832;5.974;2023-06-10T04:03:46;94887.53;;;27.77;71.18
61674;BME280;47573;43.832;5.974;2023-06-10T04:10:27;94890.28;;;27.77;71.08
61674;BME280;47573;43.832;5.974;2023-06-10T04:17:08;94892.19;;;27.77;70.95
61674;BME280;47573;43.832;5.974;2023-06-10T04:23:50;94896.03;;;27.76;71.03
61674;BME280;47573;43.832;5.974;2023-06-10T04:30:30;94903.19;;;26.93;68.63
61674;BME280;47573;43.832;5.974;2023-06-10T04:37:11;94907.34;;;26.65;69.48
61674;BME280;47573;43.832;5.974;2023-06-10T04:43:53;94903.53;;;26.61;68.29
61674;BME280;47573;43.832;5.974;2023-06-10T04:50:33;94904.06;;;26.43;68.33
61674;BME280;47573;43.832;5.974;2023-06-10T04:57:13;94906.81;;;26.48;68.65
61674;BME280;47573;43.832;5.974;2023-06-10T05:03:55;94912.31;;;26.38;69.01
61674;BME280;47573;43.832;5.974;2023-06-10T05:10:36;94906.28;;;26.36;70.15
61674;BME280;47573;43.832;5.974;2023-06-10T05:17:16;94905.72;;;26.44;70.46
61674;BME280;47573;43.832;5.974;2023-06-10T05:23:58;94890.41;;;26.28;70.82
61674;BME280;47573;43.832;5.974;2023-06-10T05:30:39;94883.81;;;26.14;70.75
61674;BME280;47573;43.832;5.974;2023-06-10T05:37:19;94883.25;;;26.22;71.59
61674;BME280;47573;43.832;5.974;2023-06-10T05:44:01;94881.38;;;26.27;71.43
61674;BME280;47573;43.832;5.974;2023-06-10T05:50:41;94888.75;;;26.27;71.09
61674;BME280;47573;43.832;5.974;2023-06-10T05:57:22;94870.16;;;26.19;72.03
61674;BME280;47573;43.832;5.974;2023-06-10T06:04:04;94861.94;;;26.29;72.16
61674;BME280;47573;43.832;5.974;2023-06-10T06:10:44;94862.47;;;26.31;72.61
61674;BME280;47573;43.832;5.974;2023-06-10T06:17:25;94882.19;;;26.18;74.01
61674;BME280;47573;43.832;5.974;2023-06-10T06:24:07;94892.59;;;26.11;75.50
61674;BME280;47573;43.832;5.974;2023-06-10T06:30:47;94899.44;;;26.13;76.42
61674;BME280;47573;43.832;5.974;2023-06-10T06:37:28;94907.38;;;26.15;76.94
61674;BME280;47573;43.832;5.974;2023-06-10T06:44:10;94912.00;;;26.24;78.40
61674;BME280;47573;43.832;5.974;2023-06-10T06:50:50;94921.31;;;26.39;78.44
61674;BME280;47573;43.832;5.974;2023-06-10T06:57:31;94906.00;;;26.48;78.33
61674;BME280;47573;43.832;5.974;2023-06-10T07:04:14;94914.72;;;26.70;77.61
61674;BME280;47573;43.832;5.974;2023-06-10T07:10:55;94913.94;;;26.79;78.39
61674;BME280;47573;43.832;5.974;2023-06-10T07:17:36;94911.72;;;26.91;76.76
61674;BME280;47573;43.832;5.974;2023-06-10T07:24:18;94903.78;;;26.90;77.13
61674;BME280;47573;43.832;5.974;2023-06-10T07:30:58;94913.88;;;26.99;76.25
61674;BME280;47573;43.832;5.974;2023-06-10T07:37:38;94901.22;;;27.14;75.89
61674;BME280;47573;43.832;5.974;2023-06-10T07:44:20;94896.03;;;27.12;75.95
61674;BME280;47573;43.832;5.974;2023-06-10T07:51:01;94908.06;;;27.16;75.38
61674;BME280;47573;43.832;5.974;2023-06-10T07:57:41;94907.25;;;27.21;74.83
61674;BME280;47573;43.832;5.974;2023-06-10T08:04:23;94902.28;;;27.38;73.41
61674;BME280;47573;43.832;5.974;2023-06-10T08:11:04;94896.25;;;27.36;72.55
61674;BME280;47573;43.832;5.974;2023-06-10T08:17:45;94889.84;;;27.55;71.22
61674;BME280;47573;43.832;5.974;2023-06-10T08:24:27;94899.44;;;27.58;71.25
61674;BME280;47573;43.832;5.974;2023-06-10T08:31:07;94900.97;;;27.79;71.00
61674;BME280;47573;43.832;5.974;2023-06-10T08:37:47;94902.03;;;27.83;71.17
61674;BME280;47573;43.832;5.974;2023-06-10T08:44:30;94893.78;;;27.88;71.22
61674;BME280;47573;43.832;5.974;2023-06-10T08:51:11;94898.13;;;27.94;70.91
61674;BME280;47573;43.832;5.974;2023-06-10T08:57:52;94908.00;;;28.00;70.58
61674;BME280;47573;43.832;5.974;2023-06-10T09:04:34;94903.00;;;28.07;70.35
61674;BME280;47573;43.832;5.974;2023-06-10T09:11:16;94901.84;;;28.13;70.21
61674;BME280;47573;43.832;5.974;2023-06-10T09:17:57;94901.31;;;28.16;70.15
61674;BME280;47573;43.832;5.974;2023-06-10T09:24:39;94900.75;;;28.19;70.29
61674;BME280;47573;43.832;5.974;2023-06-10T09:31:20;94908.38;;;28.27;69.93
61674;BME280;47573;43.832;5.974;2023-06-10T09:38:01;94900.13;;;28.27;69.92
61674;BME280;47573;43.832;5.974;2023-06-10T09:44:49;94900.66;;;28.29;69.90
61674;BME280;47573;43.832;5.974;2023-06-10T09:51:30;94897.28;;;28.37;69.71
61674;BME280;47573;43.832;5.974;2023-06-10T09:58:10;94893.69;;;28.42;69.71
61674;BME280;47573;43.832;5.974;2023-06-10T10:04:52;94884.56;;;28.46;69.48
61674;BME280;47573;43.832;5.974;2023-06-10T10:11:34;94883.47;;;28.47;69.68
61674;BME280;47573;43.832;5.974;2023-06-10T10:18:17;94874.06;;;28.53;69.45
61674;BME280;47573;43.832;5.974;2023-06-10T10:25:02;94874.06;;;28.53;69.74
61674;BME280;47573;43.832;5.974;2023-06-10T10:31:46;94879.03;;;28.56;69.47
61674;BME280;47573;43.832;5.974;2023-06-10T10:38:31;94873.78;;;28.60;69.43
61674;BME280;47573;43.832;5.974;2023-06-10T10:45:14;94863.63;;;28.60;69.16
61674;BME280;47573;43.832;5.974;2023-06-10T10:51:56;94869.31;;;28.69;69.12
61674;BME280;47573;43.832;5.974;2023-06-10T10:58:36;94856.97;;;28.67;69.03
61674;BME280;47573;43.832;5.974;2023-06-10T11:05:32;94857.41;;;28.74;68.69
61674;BME280;47573;43.832;5.974;2023-06-10T11:12:22;94845.47;;;28.59;66.95
61674;BME280;47573;43.832;5.974;2023-06-10T11:19:02;94851.66;;;28.75;68.31
61674;BME280;47573;43.832;5.974;2023-06-10T11:25:46;94857.38;;;28.79;68.57
61674;BME280;47573;43.832;5.974;2023-06-10T11:32:30;94844.06;;;28.67;66.98
61674;BME280;47573;43.832;5.974;2023-06-10T11:39:12;94843.16;;;28.72;68.37
61674;BME280;47573;43.832;5.974;2023-06-10T11:45:55;94833.34;;;28.66;67.80
61674;BME280;47573;43.832;5.974;2023-06-10T11:52:36;94827.25;;;28.69;67.99
61674;BME280;47573;43.832;5.974;2023-06-10T11:59:18;94821.19;;;28.72;66.97
61674;BME280;47573;43.832;5.974;2023-06-10T12:06:08;94810.66;;;28.79;68.16
61674;BME280;47573;43.832;5.974;2023-06-10T12:12:48;94801.25;;;28.85;68.38
61674;BME280;47573;43.832;5.974;2023-06-10T12:19:29;94791.84;;;28.91;67.62
61674;BME280;47573;43.832;5.974;2023-06-10T12:26:11;94790.75;;;28.92;68.03
61674;BME280;47573;43.832;5.974;2023-06-10T12:32:55;94786.94;;;28.88;67.58
61674;BME280;47573;43.832;5.974;2023-06-10T12:39:36;94779.09;;;29.00;67.46
61674;BME280;47573;43.832;5.974;2023-06-10T12:46:17;94780.31;;;28.89;67.26
61674;BME280;47573;43.832;5.974;2023-06-10T12:52:59;94773.34;;;28.96;67.73
61674;BME280;47573;43.832;5.974;2023-06-10T12:59:39;94764.22;;;29.01;67.69
61674;BME280;47573;43.832;5.974;2023-06-10T13:06:21;94763.03;;;29.07;67.77
61674;BME280;47573;43.832;5.974;2023-06-10T13:13:02;94759.41;;;29.11;66.86
61674;BME280;47573;43.832;5.974;2023-06-10T13:19:42;94736.31;;;29.12;67.82
61674;BME280;47573;43.832;5.974;2023-06-10T13:26:24;94751.66;;;29.18;67.57
61674;BME280;47573;43.832;5.974;2023-06-10T13:33:04;94744.81;;;29.16;67.75
61674;BME280;47573;43.832;5.974;2023-06-10T13:39:45;94734.28;;;29.23;67.47
61674;BME280;47573;43.832;5.974;2023-06-10T13:46:27;94722.47;;;29.22;66.82
61674;BME280;47573;43.832;5.974;2023-06-10T13:53:08;94731.44;;;29.28;67.37
61674;BME280;47573;43.832;5.974;2023-06-10T13:59:48;94721.47;;;29.32;67.53
61674;BME280;47573;43.832;5.974;2023-06-10T14:06:30;94716.50;;;29.34;67.67
61674;BME280;47573;43.832;5.974;2023-06-10T14:13:10;94708.25;;;29.34;67.77
61674;BME280;47573;43.832;5.974;2023-06-10T14:19:51;94698.91;;;29.35;66.43
61674;BME280;47573;43.832;5.974;2023-06-10T14:26:33;94698.91;;;29.35;67.31
61674;BME280;47573;43.832;5.974;2023-06-10T14:33:13;94690.19;;;29.47;67.05
61674;BME280;47573;43.832;5.974;2023-06-10T14:39:54;94694.34;;;29.44;67.37
61674;BME280;47573;43.832;5.974;2023-06-10T14:46:36;94699.31;;;29.42;67.63
61674;BME280;47573;43.832;5.974;2023-06-10T14:53:16;94703.41;;;29.45;67.79
61674;BME280;47573;43.832;5.974;2023-06-10T14:59:57;94700.34;;;29.46;67.78
61674;BME280;47573;43.832;5.974;2023-06-10T15:06:39;94707.97;;;29.54;67.72
61674;BME280;47573;43.832;5.974;2023-06-10T15:13:19;94719.25;;;29.53;68.07
61674;BME280;47573;43.832;5.974;2023-06-10T15:20:00;94705.72;;;29.56;68.26
61674;BME280;47573;43.832;5.974;2023-06-10T15:26:41;94726.91;;;29.56;68.54
61674;BME280;47573;43.832;5.974;2023-06-10T15:33:22;94720.59;;;29.55;68.41
61674;BME280;47573;43.832;5.974;2023-06-10T15:40:03;94736.66;;;29.48;68.57
61674;BME280;47573;43.832;5.974;2023-06-10T15:46:45;94747.28;;;29.36;70.50
61674;BME280;47573;43.832;5.974;2023-06-10T15:53:26;94729.22;;;29.30;70.44
61674;BME280;47573;43.832;5.974;2023-06-10T16:00:07;94744.09;;;29.29;71.76
61674;BME280;47573;43.832;5.974;2023-06-10T16:06:49;94721.63;;;29.22;73.14
61674;BME280;47573;43.832;5.974;2023-06-10T16:13:30;94736.22;;;28.99;74.54
61674;BME280;47573;43.832;5.974;2023-06-10T16:20:11;94738.63;;;28.82;74.46
61674;BME280;47573;43.832;5.974;2023-06-10T16:26:53;94759.00;;;28.52;76.93
61674;BME280;47573;43.832;5.974;2023-06-10T16:33:34;94741.19;;;28.49;77.95
61674;BME280;47573;43.832;5.974;2023-06-10T16:40:15;94753.88;;;28.45;77.32
61674;BME280;47573;43.832;5.974;2023-06-10T16:46:56;94753.84;;;28.74;77.96
61674;BME280;47573;43.832;5.974;2023-06-10T16:53:37;94762.00;;;28.55;81.81
61674;BME280;47573;43.832;5.974;2023-06-10T17:00:18;94772.75;;;28.52;79.90
61674;BME280;47573;43.832;5.974;2023-06-10T17:07:00;94771.44;;;28.44;79.83
61674;BME280;47573;43.832;5.974;2023-06-10T17:13:40;94778.47;;;28.55;78.01
61674;BME280;47573;43.832;5.974;2023-06-10T17:20:21;94775.31;;;28.43;79.07
61674;BME280;47573;43.832;5.974;2023-06-10T17:27:03;94767.50;;;28.27;77.34
61674;BME280;47573;43.832;5.974;2023-06-10T17:33:44;94771.66;;;28.24;77.46
61674;BME280;47573;43.832;5.974;2023-06-10T17:40:24;94782.81;;;28.33;76.22
61674;BME280;47573;43.832;5.974;2023-06-10T17:47:06;94801.84;;;28.53;75.98
61674;BME280;47573;43.832;5.974;2023-06-10T17:53:47;94802.66;;;28.53;75.88
61674;BME280;47573;43.832;5.974;2023-06-10T18:00:27;94808.75;;;28.50;75.13
61674;BME280;47573;43.832;5.974;2023-06-10T18:07:09;94813.69;;;28.20;76.91
61674;BME280;47573;43.832;5.974;2023-06-10T18:13:50;94816.28;;;28.40;75.56
61674;BME280;47573;43.832;5.974;2023-06-10T18:20:30;94818.75;;;28.36;74.33
61674;BME280;47573;43.832;5.974;2023-06-10T18:27:13;94832.63;;;28.21;76.29
61674;BME280;47573;43.832;5.974;2023-06-10T18:33:53;94851.97;;;28.06;76.66
61674;BME280;47573;43.832;5.974;2023-06-10T18:40:34;94846.97;;;28.13;75.69
61674;BME280;47573;43.832;5.974;2023-06-10T18:47:15;94858.66;;;27.90;76.63
61674;BME280;47573;43.832;5.974;2023-06-10T18:53:56;94869.66;;;27.85;77.22
61674;BME280;47573;43.832;5.974;2023-06-10T19:00:37;94859.28;;;27.77;76.14
61674;BME280;47573;43.832;5.974;2023-06-10T19:07:18;94852.72;;;27.73;76.61
61674;BME280;47573;43.832;5.974;2023-06-10T19:13:59;94864.13;;;27.90;76.64
61674;BME280;47573;43.832;5.974;2023-06-10T19:20:40;94858.13;;;27.88;77.31
61674;BME280;47573;43.832;5.974;2023-06-10T19:27:21;94872.06;;;27.97;77.59
61674;BME280;47573;43.832;5.974;2023-06-10T19:34:02;94861.34;;;27.95;76.67
61674;BME280;47573;43.832;5.974;2023-06-10T19:40:42;94867.84;;;28.09;76.58
61674;BME280;47573;43.832;5.974;2023-06-10T19:47:24;94869.59;;;28.00;77.54
61674;BME280;47573;43.832;5.974;2023-06-10T19:54:05;94877.31;;;27.88;78.23
61674;BME280;47573;43.832;5.974;2023-06-10T20:00:45;94869.19;;;27.73;79.27
61674;BME280;47573;43.832;5.974;2023-06-10T20:07:27;94884.00;;;27.72;79.35
61674;BME280;47573;43.832;5.974;2023-06-10T20:14:07;94870.81;;;27.74;78.98
61674;BME280;47573;43.832;5.974;2023-06-10T20:20:48;94878.19;;;27.78;78.58
61674;BME280;47573;43.832;5.974;2023-06-10T20:27:30;94875.53;;;27.63;78.58
61674;BME280;47573;43.832;5.974;2023-06-10T20:34:10;94880.66;;;27.80;78.23
61674;BME280;47573;43.832;5.974;2023-06-10T20:40:51;94889.28;;;28.07;77.49
61674;BME280;47573;43.832;5.974;2023-06-10T21:00:14;94894.56;;;28.37;76.54
61674;BME280;47573;43.832;5.974;2023-06-10T21:06:54;94903.25;;;28.44;76.13
61674;BME280;47573;43.832;5.974;2023-06-10T21:13:35;94905.97;;;28.49;75.87
61674;BME280;47573;43.832;5.974;2023-06-10T21:20:17;94893.84;;;28.55;75.61
61674;BME280;47573;43.832;5.974;2023-06-10T21:26:57;94899.84;;;28.63;75.24
61674;BME280;47573;43.832;5.974;2023-06-10T21:33:37;94893.25;;;28.63;75.11
61674;BME280;47573;43.832;5.974;2023-06-10T21:40:19;94891.09;;;28.60;74.85
61674;BME280;47573;43.832;5.974;2023-06-10T21:47:00;94897.72;;;28.54;75.02
61674;BME280;47573;43.832;5.974;2023-06-10T21:53:40;94892.16;;;28.65;75.07
61674;BME280;47573;43.832;5.974;2023-06-10T22:00:22;94893.78;;;28.66;74.62
61674;BME280;47573;43.832;5.974;2023-06-10T22:07:03;94889.44;;;28.59;74.85
61674;BME280;47573;43.832;5.974;2023-06-10T22:13:43;94881.16;;;28.65;74.55
61674;BME280;47573;43.832;5.974;2023-06-10T22:20:25;94880.66;;;28.57;74.71
61674;BME280;47573;43.832;5.974;2023-06-10T22:27:06;94885.06;;;28.58;74.89
61674;BME280;47573;43.832;5.974;2023-06-10T22:33:47;94875.16;;;28.57;74.55
61674;BME280;47573;43.832;5.974;2023-06-10T22:40:29;94872.41;;;28.57;74.70
61674;BME280;47573;43.832;5.974;2023-06-10T22:47:09;94875.16;;;28.57;74.43
61674;BME280;47573;43.832;5.974;2023-06-10T22:53:50;94877.34;;;28.55;74.50
61674;BME280;47573;43.832;5.974;2023-06-10T23:00:32;94880.09;;;28.60;73.95
61674;BME280;47573;43.832;5.974;2023-06-10T23:07:12;94864.06;;;28.68;73.87
61674;BME280;47573;43.832;5.974;2023-06-10T23:13:53;94864.75;;;28.54;73.90
61674;BME280;47573;43.832;5.974;2023-06-10T23:20:35;94855.84;;;28.68;73.47
61674;BME280;47573;43.832;5.974;2023-06-10T23:27:15;94847.59;;;28.68;74.02
61674;BME280;47573;43.832;5.974;2023-06-10T23:33:56;94831.72;;;28.65;74.33
61674;BME280;47573;43.832;5.974;2023-06-10T23:55:46;94826.66;;;28.72;74.09
